Teesside, United Kingdom
Current Conditions -  °F | °C
As of 9:20 PM on Friday 19 Dec 2014 (Local Time) from EGNV Reporting Station
Few Clouds Few Clouds  
Wind Chill: 35°   Ceiling: Unl
Heat Index: 43°   Visibility: 6mi
Dew Point: 36°   Wind: 17mph
Humidity: 76%   Direction: 250°WSW
Pressure: 29.91"   Gusts: NA
Location:  54.58°N, 1.25°W
Report Text: EGNV 192120Z 25015KT 9999 FEW049 06/02 Q1013
Loading
Personal Weather Stations






























Interactive Weather Map New forecast layout! Learn more

10-Day Weather Forecast

Advertisements
Track Severe Weather on mobile